Time;durP1;ratioP1;P1;durP2;ratioP2;P2;SDS_P1;SDS_P2;PMS_P1;PMS_P2;Temp;Humidity;BMP_temperature;BMP_pressure;BME280_temperature;BME280_humidity;BME280_pressure;Samples;Min_cycle;Max_cycle;Signal;HPM_P1;HPM_P2
2023/12/29 13:57:08;;;;;;;1.52;0.52;;;;;;;;;;5123006;27;20377;-86
2023/12/29 13:59:34;;;;;;;2.78;0.50;;;;;;;;;;5070168;28;20058;-86
2023/12/29 14:02:03;;;;;;;1.20;0.65;;;;;;;;;;5065124;28;20525;-86
2023/12/29 14:04:29;;;;;;;1.30;0.52;;;;;;;;;;5075778;28;20108;-87
2023/12/29 14:07:02;;;;;;;4.55;0.50;;;;;;;;;;5068647;28;20012;-86
2023/12/29 14:09:28;;;;;;;2.72;0.50;;;;;;;;;;5084621;28;20027;-86
2023/12/29 14:11:54;;;;;;;3.85;0.88;;;;;;;;;;5074668;28;20099;-86
2023/12/29 14:14:26;;;;;;;2.33;0.52;;;;;;;;;;5075397;28;20028;-87
2023/12/29 14:16:59;;;;;;;1.63;0.50;;;;;;;;;;5080863;28;20141;-86
2023/12/29 14:19:25;;;;;;;1.42;0.40;;;;;;;;;;5066989;28;20062;-87
2023/12/29 14:21:52;;;;;;;4.75;0.60;;;;;;;;;;5075695;28;20016;-86
2023/12/29 14:24:23;;;;;;;2.10;0.40;;;;;;;;;;5074715;28;20412;-87
2023/12/29 14:26:52;;;;;;;1.35;0.50;;;;;;;;;;5072549;28;20050;-87
2023/12/29 14:29:17;;;;;;;1.25;0.40;;;;;;;;;;5065587;28;20021;-90
2023/12/29 14:31:44;;;;;;;2.17;0.60;;;;;;;;;;5073035;28;20027;-87
2023/12/29 14:34:10;;;;;;;0.88;0.43;;;;;;;;;;5065997;28;20048;-87
2023/12/29 14:36:36;;;;;;;2.88;0.47;;;;;;;;;;5070962;28;20016;-87
2023/12/29 14:39:02;;;;;;;1.15;0.50;;;;;;;;;;5073223;28;20017;-86
2023/12/29 14:41:28;;;;;;;2.15;0.50;;;;;;;;;;5072730;28;20021;-86
2023/12/29 14:43:53;;;;;;;1.08;0.30;;;;;;;;;;5068334;28;20047;-87
2023/12/29 14:46:21;;;;;;;0.63;0.40;;;;;;;;;;5065761;28;20056;-87
2023/12/29 14:48:47;;;;;;;0.90;0.35;;;;;;;;;;5069172;28;20096;-87
2023/12/29 14:51:12;;;;;;;2.47;0.50;;;;;;;;;;5066136;28;20108;-86
2023/12/29 14:53:38;;;;;;;0.63;0.30;;;;;;;;;;5069730;28;20025;-87
2023/12/29 14:56:05;;;;;;;4.65;0.40;;;;;;;;;;5063959;28;20033;-87
2023/12/29 14:58:33;;;;;;;2.72;0.50;;;;;;;;;;5070406;28;20035;-87
2023/12/29 15:00:58;;;;;;;2.42;0.40;;;;;;;;;;5071166;28;20802;-86
2023/12/29 15:03:24;;;;;;;1.08;0.40;;;;;;;;;;5063517;28;20130;-87
2023/12/29 15:05:49;;;;;;;1.08;0.40;;;;;;;;;;5066218;28;20033;-87
2023/12/29 15:08:14;;;;;;;1.98;0.63;;;;;;;;;;5053098;28;20025;-87
2023/12/29 15:10:40;;;;;;;1.95;0.52;;;;;;;;;;5049750;28;20053;-86
2023/12/29 15:13:06;;;;;;;4.88;0.77;;;;;;;;;;5068649;28;20043;-86
2023/12/29 15:15:32;;;;;;;1.20;0.30;;;;;;;;;;5052403;28;20020;-87
2023/12/29 15:17:57;;;;;;;0.82;0.40;;;;;;;;;;5058927;28;20029;-87
2023/12/29 15:20:23;;;;;;;1.45;0.93;;;;;;;;;;5052753;28;20052;-87
2023/12/29 15:22:48;;;;;;;2.05;0.40;;;;;;;;;;5046319;28;20059;-87
2023/12/29 15:25:14;;;;;;;2.03;0.43;;;;;;;;;;5051662;28;20025;-87
2023/12/29 15:27:39;;;;;;;1.80;0.43;;;;;;;;;;5050211;28;20024;-86
2023/12/29 15:30:05;;;;;;;1.50;0.50;;;;;;;;;;5050529;28;20433;-86
2023/12/29 15:32:30;;;;;;;3.90;0.40;;;;;;;;;;5044926;28;20406;-87
2023/12/29 15:34:55;;;;;;;1.40;0.50;;;;;;;;;;5051445;28;20025;-87
2023/12/29 15:37:22;;;;;;;0.68;0.40;;;;;;;;;;5057340;28;20035;-87
2023/12/29 15:39:47;;;;;;;0.30;0.30;;;;;;;;;;5052148;28;20032;-87
2023/12/29 15:42:13;;;;;;;4.00;0.88;;;;;;;;;;5040062;28;20013;-87
2023/12/29 15:44:39;;;;;;;0.65;0.43;;;;;;;;;;5045584;28;20033;-87
2023/12/29 15:47:04;;;;;;;3.72;0.80;;;;;;;;;;5043893;28;20115;-87
2023/12/29 15:49:30;;;;;;;0.50;0.40;;;;;;;;;;5051292;28;20166;-86
2023/12/29 15:51:56;;;;;;;0.75;0.32;;;;;;;;;;5046969;28;20028;-87
2023/12/29 15:54:21;;;;;;;2.70;0.50;;;;;;;;;;5055272;28;20190;-87
2023/12/29 15:56:47;;;;;;;1.33;0.40;;;;;;;;;;5038526;28;20086;-87
2023/12/29 15:59:12;;;;;;;1.65;0.43;;;;;;;;;;5050883;28;20563;-87
2023/12/29 16:01:38;;;;;;;1.58;0.50;;;;;;;;;;5049295;28;20532;-87
2023/12/29 16:04:04;;;;;;;0.63;0.45;;;;;;;;;;5048080;28;20021;-87
2023/12/29 16:06:29;;;;;;;1.17;0.45;;;;;;;;;;5043780;28;20041;-87
2023/12/29 16:08:56;;;;;;;0.73;0.47;;;;;;;;;;5046715;28;20038;-87
2023/12/29 16:11:26;;;;;;;1.45;0.50;;;;;;;;;;5054350;28;20020;-87
2023/12/29 16:13:52;;;;;;;0.85;0.40;;;;;;;;;;5053066;28;20799;-87
2023/12/29 16:16:18;;;;;;;1.45;0.40;;;;;;;;;;5058491;28;20112;-87
2023/12/29 16:18:45;;;;;;;0.43;0.35;;;;;;;;;;5056993;28;20059;-87
2023/12/29 16:21:12;;;;;;;2.28;0.50;;;;;;;;;;5061880;28;20021;-87
2023/12/29 16:24:03;;;;;;;1.42;0.60;;;;;;;;;;5048343;28;20036;-87
2023/12/29 16:26:29;;;;;;;1.42;0.68;;;;;;;;;;5042782;28;20086;-87
2023/12/29 16:28:58;;;;;;;1.63;0.57;;;;;;;;;;5059290;28;20503;-87
2023/12/29 16:31:23;;;;;;;1.25;0.55;;;;;;;;;;5049007;28;20028;-87
2023/12/29 16:33:48;;;;;;;1.17;0.50;;;;;;;;;;5051205;28;20009;-87
2023/12/29 16:36:14;;;;;;;1.83;0.55;;;;;;;;;;5065469;28;20293;-87
2023/12/29 16:38:49;;;;;;;4.32;0.75;;;;;;;;;;5065578;28;20017;-87
2023/12/29 16:41:15;;;;;;;2.40;0.98;;;;;;;;;;5063922;28;20025;-87
2023/12/29 16:43:41;;;;;;;2.30;0.75;;;;;;;;;;5040784;28;20092;-87
2023/12/29 16:46:07;;;;;;;1.13;0.50;;;;;;;;;;5059152;28;20025;-87
2023/12/29 16:48:50;;;;;;;4.13;0.50;;;;;;;;;;5065690;28;20025;-86
2023/12/29 16:51:39;;;;;;;4.78;0.60;;;;;;;;;;5063484;28;20028;-87
2023/12/29 16:54:07;;;;;;;1.60;0.40;;;;;;;;;;5057794;28;20018;-88
2023/12/29 16:56:32;;;;;;;1.38;0.50;;;;;;;;;;5073218;28;20016;-87
2023/12/29 16:59:00;;;;;;;2.42;0.47;;;;;;;;;;5062776;28;20029;-87
2023/12/29 17:01:28;;;;;;;3.03;0.40;;;;;;;;;;5063614;28;20044;-87
2023/12/29 17:03:54;;;;;;;3.00;0.52;;;;;;;;;;5054154;28;20029;-87
2023/12/29 17:06:20;;;;;;;2.60;0.63;;;;;;;;;;5074228;28;20005;-87
2023/12/29 17:08:46;;;;;;;2.97;0.73;;;;;;;;;;5062528;28;20499;-87
2023/12/29 17:11:11;;;;;;;0.90;0.40;;;;;;;;;;5061441;28;20048;-87
2023/12/29 17:13:46;;;;;;;2.10;0.82;;;;;;;;;;5068810;28;19997;-87
2023/12/29 17:16:11;;;;;;;1.13;0.55;;;;;;;;;;5064050;28;20028;-86
2023/12/29 17:18:57;;;;;;;1.90;0.60;;;;;;;;;;5072977;28;20051;-87
2023/12/29 17:21:23;;;;;;;1.98;0.50;;;;;;;;;;5067466;28;20027;-86
2023/12/29 17:23:51;;;;;;;1.35;0.63;;;;;;;;;;5078295;28;19997;-86
2023/12/29 17:26:19;;;;;;;3.15;1.10;;;;;;;;;;5069171;28;20064;-87
2023/12/29 17:29:02;;;;;;;2.05;0.77;;;;;;;;;;5058896;28;20044;-86
2023/12/29 17:31:28;;;;;;;1.35;0.55;;;;;;;;;;5068172;28;20029;-87
2023/12/29 17:33:57;;;;;;;3.92;0.68;;;;;;;;;;5079030;28;20048;-87
2023/12/29 17:36:23;;;;;;;4.90;0.57;;;;;;;;;;5071770;28;20017;-87
2023/12/29 17:38:49;;;;;;;1.25;0.38;;;;;;;;;;5070498;28;20033;-87
2023/12/29 17:41:17;;;;;;;3.15;0.60;;;;;;;;;;5061628;28;20063;-87
2023/12/29 17:43:42;;;;;;;3.95;0.60;;;;;;;;;;5080913;28;20005;-87
2023/12/29 17:46:11;;;;;;;2.35;1.00;;;;;;;;;;5075551;28;20093;-88
2023/12/29 17:48:36;;;;;;;2.00;0.80;;;;;;;;;;5078932;28;20004;-87
2023/12/29 17:51:01;;;;;;;2.75;0.88;;;;;;;;;;5069166;28;20088;-88
2023/12/29 17:53:27;;;;;;;5.88;0.93;;;;;;;;;;5070692;28;20044;-88
2023/12/29 17:55:52;;;;;;;4.20;0.85;;;;;;;;;;5067917;28;20040;-88
2023/12/29 17:58:17;;;;;;;6.57;0.70;;;;;;;;;;5066452;28;20021;-88
2023/12/29 18:00:43;;;;;;;2.33;0.50;;;;;;;;;;5060664;28;20071;-88
2023/12/29 18:03:08;;;;;;;1.00;0.52;;;;;;;;;;5070830;28;20012;-89
2023/12/29 18:05:37;;;;;;;3.13;0.80;;;;;;;;;;5095047;28;20013;-88
2023/12/29 18:08:10;;;;;;;2.95;0.70;;;;;;;;;;5085159;28;20037;-88
2023/12/29 18:10:42;;;;;;;1.52;0.40;;;;;;;;;;5085361;28;20092;-88
2023/12/29 18:13:44;;;;;;;1.25;0.50;;;;;;;;;;5083000;22;20029;-88
2023/12/29 18:16:28;;;;;;;7.28;1.05;;;;;;;;;;5076229;28;20001;-88
2023/12/29 18:18:54;;;;;;;1.48;0.52;;;;;;;;;;5075398;28;20036;-87
2023/12/29 18:21:42;;;;;;;1.33;0.40;;;;;;;;;;5076313;28;20001;-88
2023/12/29 18:24:07;;;;;;;1.42;0.50;;;;;;;;;;5076310;28;20051;-88
2023/12/29 18:26:33;;;;;;;1.95;0.50;;;;;;;;;;5074897;28;20020;-88
2023/12/29 18:29:19;;;;;;;1.30;0.60;;;;;;;;;;5076569;28;20006;-88
2023/12/29 18:31:54;;;;;;;2.30;0.70;;;;;;;;;;5076366;28;20025;-88
2023/12/29 18:34:39;;;;;;;1.95;0.50;;;;;;;;;;5069632;28;20009;-87
2023/12/29 18:37:08;;;;;;;2.85;0.85;;;;;;;;;;5181574;22;20044;-88
2023/12/29 18:39:46;;;;;;;1.17;0.52;;;;;;;;;;5096462;28;20072;-87
2023/12/29 18:42:58;;;;;;;0.85;0.57;;;;;;;;;;5058602;28;20009;-88
2023/12/29 18:45:56;;;;;;;1.70;0.55;;;;;;;;;;5042709;28;20062;-88
2023/12/29 18:48:23;;;;;;;2.60;1.13;;;;;;;;;;5053250;28;20009;-87
2023/12/29 18:50:54;;;;;;;1.98;0.65;;;;;;;;;;5059994;28;20002;-88
2023/12/29 18:53:22;;;;;;;1.00;0.60;;;;;;;;;;5042602;28;20013;-88
2023/12/29 18:55:52;;;;;;;3.63;0.60;;;;;;;;;;5060373;28;20026;-88
2023/12/29 18:58:25;;;;;;;3.35;0.70;;;;;;;;;;5069262;28;20021;-88
2023/12/29 19:00:58;;;;;;;1.60;0.50;;;;;;;;;;5059272;28;20029;-88
2023/12/29 19:03:44;;;;;;;1.75;0.55;;;;;;;;;;5060415;28;20009;-88
2023/12/29 19:06:12;;;;;;;3.35;0.50;;;;;;;;;;5059545;28;20047;-88
2023/12/29 19:08:52;;;;;;;3.30;0.50;;;;;;;;;;5049530;28;20005;-88
2023/12/29 19:11:25;;;;;;;3.85;0.60;;;;;;;;;;5082660;22;20059;-88
2023/12/29 19:14:14;;;;;;;6.35;0.98;;;;;;;;;;5100887;28;20025;-88
2023/12/29 19:16:59;;;;;;;1.40;0.50;;;;;;;;;;5079662;28;20440;-88
2023/12/29 19:19:24;;;;;;;2.97;0.73;;;;;;;;;;5074157;28;20056;-88
2023/12/29 19:21:50;;;;;;;2.08;0.45;;;;;;;;;;5062703;28;20028;-88
2023/12/29 19:24:16;;;;;;;3.35;0.55;;;;;;;;;;5065930;28;20033;-88
2023/12/29 19:27:02;;;;;;;1.60;0.50;;;;;;;;;;5070732;28;20021;-88
2023/12/29 19:29:48;;;;;;;1.33;0.43;;;;;;;;;;5079044;28;20013;-89
2023/12/29 19:32:21;;;;;;;3.38;0.80;;;;;;;;;;5079621;28;20044;-88
2023/12/29 19:34:46;;;;;;;4.35;0.70;;;;;;;;;;5076892;28;20005;-88
2023/12/29 19:37:20;;;;;;;3.08;0.60;;;;;;;;;;5079573;28;20029;-88
2023/12/29 19:39:48;;;;;;;4.35;1.00;;;;;;;;;;5078768;28;20025;-88
2023/12/29 19:42:22;;;;;;;3.40;0.73;;;;;;;;;;5081705;28;20028;-88
2023/12/29 19:45:07;;;;;;;0.98;0.50;;;;;;;;;;5075796;28;20513;-88
2023/12/29 19:47:53;;;;;;;2.33;0.60;;;;;;;;;;5091645;22;20036;-88
2023/12/29 19:53:04;;;;;;;1.58;0.50;;;;;;;;;;5055289;28;20061;-88
2023/12/29 19:56:09;;;;;;;2.05;0.55;;;;;;;;;;5058356;28;20029;-88
2023/12/29 19:58:58;;;;;;;3.47;0.68;;;;;;;;;;5058346;28;20100;-88
2023/12/29 20:01:48;;;;;;;5.15;0.75;;;;;;;;;;5065271;22;20046;-87
2023/12/29 20:04:22;;;;;;;2.25;0.50;;;;;;;;;;5058634;28;20010;-88
2023/12/29 20:07:05;;;;;;;3.30;0.98;;;;;;;;;;5058970;28;20032;-88
2023/12/29 20:09:34;;;;;;;1.55;0.70;;;;;;;;;;5058202;28;20049;-88
2023/12/29 20:12:01;;;;;;;1.33;0.40;;;;;;;;;;5059190;28;20090;-88
2023/12/29 20:14:48;;;;;;;2.97;0.70;;;;;;;;;;5058184;28;20418;-87
2023/12/29 20:17:14;;;;;;;3.95;1.00;;;;;;;;;;5044842;28;20382;-87
2023/12/29 20:19:40;;;;;;;4.07;0.60;;;;;;;;;;5046309;28;20017;-87
2023/12/29 20:22:06;;;;;;;3.00;0.80;;;;;;;;;;5043718;28;20021;-87
2023/12/29 20:24:39;;;;;;;3.42;0.90;;;;;;;;;;5047863;28;20056;-88
2023/12/29 20:27:05;;;;;;;4.70;1.50;;;;;;;;;;5045444;28;20036;-88
2023/12/29 20:29:30;;;;;;;2.85;0.57;;;;;;;;;;5044047;28;20022;-88
2023/12/29 20:31:56;;;;;;;2.38;0.70;;;;;;;;;;5104817;22;20036;-96
2023/12/29 20:34:22;;;;;;;4.63;0.68;;;;;;;;;;5056661;28;20127;-96
2023/12/29 20:36:47;;;;;;;4.95;0.77;;;;;;;;;;5059478;28;20021;-96
2023/12/29 20:39:12;;;;;;;2.92;0.88;;;;;;;;;;5058221;28;20055;-96
2023/12/29 20:41:38;;;;;;;4.78;1.05;;;;;;;;;;5067330;28;20031;-96
2023/12/29 20:44:03;;;;;;;2.22;0.65;;;;;;;;;;5058022;28;20410;-95
2023/12/29 20:46:28;;;;;;;1.55;0.60;;;;;;;;;;5054087;28;20028;-95
2023/12/29 20:48:53;;;;;;;2.50;0.55;;;;;;;;;;5053961;28;20090;-94
2023/12/29 20:51:30;;;;;;;5.72;0.93;;;;;;;;;;5055279;28;20541;-95
2023/12/29 20:53:55;;;;;;;1.75;0.60;;;;;;;;;;5065448;28;20380;-95
2023/12/29 20:56:21;;;;;;;3.35;0.60;;;;;;;;;;5058773;28;20017;-96
2023/12/29 20:58:49;;;;;;;4.88;1.33;;;;;;;;;;5064517;28;20086;-96
2023/12/29 21:01:14;;;;;;;5.00;1.00;;;;;;;;;;5063450;28;20162;-94
2023/12/29 21:03:43;;;;;;;5.43;1.00;;;;;;;;;;5060633;28;20025;-96
2023/12/29 21:06:08;;;;;;;7.90;1.10;;;;;;;;;;5056720;28;20084;-96
2023/12/29 21:11:36;;;;;;;3.70;0.60;;;;;;;;;;5063346;28;20033;-96
2023/12/29 21:14:05;;;;;;;4.05;0.52;;;;;;;;;;5075937;28;20027;-96
2023/12/29 21:16:32;;;;;;;3.50;0.82;;;;;;;;;;5063927;28;20017;-96
2023/12/29 21:19:03;;;;;;;4.13;0.80;;;;;;;;;;5076069;28;20009;-96
2023/12/29 21:21:58;;;;;;;2.65;0.57;;;;;;;;;;5072609;28;20025;-96
2023/12/29 21:24:26;;;;;;;3.88;0.98;;;;;;;;;;5089508;28;20067;-96
2023/12/29 21:27:10;;;;;;;4.75;0.60;;;;;;;;;;5075158;28;20099;-96
2023/12/29 21:29:52;;;;;;;2.97;0.75;;;;;;;;;;5066426;28;20020;-96
2023/12/29 21:32:22;;;;;;;3.70;0.82;;;;;;;;;;5095874;22;20101;-91
2023/12/29 21:34:47;;;;;;;2.17;0.60;;;;;;;;;;5064849;28;20046;-92
2023/12/29 21:37:13;;;;;;;2.63;0.55;;;;;;;;;;5041746;28;20116;-94
2023/12/29 21:39:38;;;;;;;2.40;0.65;;;;;;;;;;5063414;28;20013;-89
2023/12/29 21:42:04;;;;;;;2.30;0.80;;;;;;;;;;5065615;28;20055;-91
2023/12/29 21:44:29;;;;;;;3.88;0.82;;;;;;;;;;5031955;28;20470;-92
2023/12/29 21:46:54;;;;;;;6.20;0.70;;;;;;;;;;5033523;28;20034;-89
2023/12/29 21:49:19;;;;;;;4.70;0.88;;;;;;;;;;5036216;28;20473;-90
2023/12/29 21:51:45;;;;;;;7.00;0.80;;;;;;;;;;5043666;28;20032;-90
2023/12/29 21:54:10;;;;;;;4.05;0.93;;;;;;;;;;5036025;28;20091;-91
2023/12/29 21:56:36;;;;;;;5.30;0.80;;;;;;;;;;5032079;28;20087;-91
2023/12/29 21:59:01;;;;;;;3.53;0.77;;;;;;;;;;5029224;28;20025;-89
2023/12/29 22:01:36;;;;;;;2.47;0.60;;;;;;;;;;5030260;28;20021;-90
2023/12/29 22:04:03;;;;;;;3.85;0.45;;;;;;;;;;5026713;28;20040;-90
2023/12/29 22:06:29;;;;;;;6.72;0.98;;;;;;;;;;5028910;28;20132;-90
2023/12/29 22:08:54;;;;;;;2.67;0.70;;;;;;;;;;5030131;28;20021;-89
2023/12/29 22:11:20;;;;;;;6.82;1.08;;;;;;;;;;5035999;28;20026;-90
2023/12/29 22:13:45;;;;;;;6.85;1.20;;;;;;;;;;5027380;28;20021;-90
2023/12/29 22:16:13;;;;;;;2.42;0.70;;;;;;;;;;5028976;28;20116;-89
2023/12/29 22:18:39;;;;;;;7.88;1.25;;;;;;;;;;5034122;28;20063;-91
2023/12/29 22:21:04;;;;;;;5.45;1.48;;;;;;;;;;5032921;28;20454;-90
2023/12/29 22:23:29;;;;;;;3.50;0.88;;;;;;;;;;5035840;28;20064;-90
2023/12/29 22:25:54;;;;;;;3.05;0.93;;;;;;;;;;5036432;28;20128;-90
2023/12/29 22:28:20;;;;;;;3.10;0.85;;;;;;;;;;5033124;28;20032;-90
2023/12/29 22:30:45;;;;;;;3.65;0.55;;;;;;;;;;5033502;28;20040;-90
2023/12/29 22:33:10;;;;;;;5.07;1.02;;;;;;;;;;5033838;28;20033;-90
2023/12/29 22:35:36;;;;;;;3.45;0.65;;;;;;;;;;5043840;28;20033;-90
2023/12/29 22:38:01;;;;;;;3.90;1.00;;;;;;;;;;5035793;28;20105;-90
2023/12/29 22:40:26;;;;;;;2.90;1.00;;;;;;;;;;5032951;28;20497;-90
2023/12/29 22:42:51;;;;;;;3.42;0.80;;;;;;;;;;5031213;28;20025;-90
2023/12/29 22:45:16;;;;;;;3.63;0.80;;;;;;;;;;5039545;28;20033;-90
2023/12/29 22:47:42;;;;;;;6.15;0.77;;;;;;;;;;5033514;28;20034;-90
2023/12/29 22:50:07;;;;;;;2.90;0.70;;;;;;;;;;5033248;28;20030;-90
2023/12/29 22:52:32;;;;;;;5.25;0.88;;;;;;;;;;5034952;28;20021;-90
2023/12/29 22:54:59;;;;;;;3.08;0.70;;;;;;;;;;5029869;28;20140;-90
2023/12/29 22:57:24;;;;;;;5.60;0.70;;;;;;;;;;5040358;28;20474;-90
2023/12/29 22:59:49;;;;;;;3.10;0.47;;;;;;;;;;5034645;28;20024;-90
2023/12/29 23:02:16;;;;;;;4.35;0.80;;;;;;;;;;5033516;28;20112;-90
2023/12/29 23:04:41;;;;;;;5.30;1.02;;;;;;;;;;5029682;28;20391;-90
2023/12/29 23:07:07;;;;;;;2.97;0.98;;;;;;;;;;5049622;28;20031;-90
2023/12/29 23:09:34;;;;;;;5.15;0.80;;;;;;;;;;5034965;28;20025;-91
2023/12/29 23:12:00;;;;;;;2.10;0.80;;;;;;;;;;5034712;28;20494;-90
2023/12/29 23:14:25;;;;;;;1.60;0.70;;;;;;;;;;5033402;28;20029;-90
2023/12/29 23:16:50;;;;;;;4.97;0.60;;;;;;;;;;5032805;28;20064;-91
2023/12/29 23:19:15;;;;;;;3.97;0.85;;;;;;;;;;5033392;28;20033;-90
2023/12/29 23:21:41;;;;;;;3.63;0.60;;;;;;;;;;5032555;28;20029;-90
2023/12/29 23:24:06;;;;;;;3.42;0.63;;;;;;;;;;5034242;28;20116;-89
2023/12/29 23:26:31;;;;;;;4.30;0.80;;;;;;;;;;5031520;28;20193;-90
2023/12/29 23:28:57;;;;;;;7.90;0.70;;;;;;;;;;5031946;28;20390;-91
2023/12/29 23:31:22;;;;;;;3.30;0.93;;;;;;;;;;5033487;28;20382;-90
2023/12/29 23:33:48;;;;;;;3.25;0.88;;;;;;;;;;5034152;28;20159;-90
2023/12/29 23:36:13;;;;;;;2.03;0.70;;;;;;;;;;5031725;28;20045;-89
2023/12/29 23:38:38;;;;;;;3.40;0.75;;;;;;;;;;5042050;28;20427;-91
2023/12/29 23:41:04;;;;;;;3.08;0.75;;;;;;;;;;5037079;28;20029;-91
2023/12/29 23:43:29;;;;;;;3.75;0.80;;;;;;;;;;5032417;28;20029;-91
2023/12/29 23:45:54;;;;;;;6.15;0.90;;;;;;;;;;5032302;28;20037;-89
2023/12/29 23:48:20;;;;;;;4.95;0.60;;;;;;;;;;5032611;28;20424;-91
2023/12/29 23:50:45;;;;;;;2.90;0.90;;;;;;;;;;5032189;28;20048;-89
2023/12/29 23:53:10;;;;;;;4.22;0.98;;;;;;;;;;5045671;28;20029;-91
2023/12/29 23:55:35;;;;;;;4.57;0.95;;;;;;;;;;5024529;28;20105;-91
2023/12/29 23:58:01;;;;;;;2.63;0.70;;;;;;;;;;5027021;28;20026;-90
